Terminal Aerodrome Forecast
Issued by NWS

Home | Current Version | Previous Version | Text Only | Print | Product List | Glossary On
Versions: 1 2 3 4 5 6 7 8 9 10 11 12 13 14 15 16 17 18 19 20 21 22 23
000
FTUS46 KLOX 111100
TAFVNY
TAF
KVNY 111123Z 1112/1212 VRB03KT P6SM BKN010
     FM111300 VRB03KT 6SM BR OVC008
     FM111500 VRB03KT 6SM BR OVC010
     FM111700 VRB03KT P6SM SKC
     FM112100 14008KT P6SM SKC
     FM120300 VRB03KT P6SM SKC
     FM121100 VRB03KT 5SM BR BKN006=

USA.gov is the U.S. government's official web portal to all federal, state and local government web resources and services.